KASE

Aspen-Pitkin Co / Sardy Field Airport

Aspen, Colorado, USA
METAR KASE 250453Z AUTO 21008KT 10SM CLR 11/M03 A3029 RMK AO2 SLP148 T01061028
Observed Flight Rules
May-25 @ 04:53 UTC (22 minutes ago) Visual Flight Rules
Wind Visibility Clouds
210° at 8 knots 10 miles
  • Clear skies
Temperatures Readings
Current 11°C / 52°F
Dewpoint -3°C / 27°F
Humidity 38%
Altimeter 30.29" Hg
Pressure 1014.8 hPa
Elevation 2354
METAR KASE 250453Z AUTO 21008KT 10SM CLR 11/M03 A3029 RMK AO2 SLP148 T01061028
Observed Flight Rules
May-25 @ 04:53 UTC
(22 minutes ago)
VFR
Wind Visibility
210° at 8 knots 10 miles
Clouds
  • Clear skies
Temperature Dewpoint
11°C / 52°F -3°C / 27°F
Humidity Altimeter Pressure
38% 30.29" Hg 1014.8 hPa